sensor_id;sensor_type;location;lat;lon;timestamp;P1;durP1;ratioP1;P2;durP2;ratioP2
81056;SDS011;70563;50.084;14.468;2023-11-22T00:00:16;1.75;;;1.33;;
81056;SDS011;70563;50.084;14.468;2023-11-22T00:02:41;5.25;;;1.58;;
81056;SDS011;70563;50.084;14.468;2023-11-22T00:05:07;2.47;;;1.95;;
81056;SDS011;70563;50.084;14.468;2023-11-22T00:07:32;3.03;;;2.00;;
81056;SDS011;70563;50.084;14.468;2023-11-22T00:09:58;4.15;;;1.83;;
81056;SDS011;70563;50.084;14.468;2023-11-22T00:12:23;4.00;;;1.67;;
81056;SDS011;70563;50.084;14.468;2023-11-22T00:14:50;3.30;;;1.83;;
81056;SDS011;70563;50.084;14.468;2023-11-22T00:17:16;4.45;;;1.90;;
81056;SDS011;70563;50.084;14.468;2023-11-22T00:19:45;2.58;;;1.63;;
81056;SDS011;70563;50.084;14.468;2023-11-22T00:22:11;3.03;;;1.80;;
81056;SDS011;70563;50.084;14.468;2023-11-22T00:24:38;3.13;;;2.05;;
81056;SDS011;70563;50.084;14.468;2023-11-22T00:27:07;3.20;;;2.30;;
81056;SDS011;70563;50.084;14.468;2023-11-22T00:29:33;4.43;;;2.08;;
81056;SDS011;70563;50.084;14.468;2023-11-22T00:31:59;2.20;;;1.92;;
81056;SDS011;70563;50.084;14.468;2023-11-22T00:34:25;4.63;;;1.90;;
81056;SDS011;70563;50.084;14.468;2023-11-22T00:36:51;3.70;;;1.90;;
81056;SDS011;70563;50.084;14.468;2023-11-22T00:39:17;3.35;;;2.50;;
81056;SDS011;70563;50.084;14.468;2023-11-22T00:41:42;3.15;;;2.03;;
81056;SDS011;70563;50.084;14.468;2023-11-22T00:44:09;3.75;;;2.05;;
81056;SDS011;70563;50.084;14.468;2023-11-22T00:46:35;4.95;;;2.72;;
81056;SDS011;70563;50.084;14.468;2023-11-22T00:49:00;3.90;;;2.33;;
81056;SDS011;70563;50.084;14.468;2023-11-22T00:51:26;4.05;;;2.38;;
81056;SDS011;70563;50.084;14.468;2023-11-22T00:53:52;4.50;;;2.80;;
81056;SDS011;70563;50.084;14.468;2023-11-22T00:56:17;3.08;;;2.67;;
81056;SDS011;70563;50.084;14.468;2023-11-22T00:58:43;4.05;;;2.70;;
81056;SDS011;70563;50.084;14.468;2023-11-22T01:01:08;4.18;;;2.80;;
81056;SDS011;70563;50.084;14.468;2023-11-22T01:03:34;5.60;;;3.22;;
81056;SDS011;70563;50.084;14.468;2023-11-22T01:06:00;5.38;;;3.22;;
81056;SDS011;70563;50.084;14.468;2023-11-22T01:08:26;4.72;;;2.75;;
81056;SDS011;70563;50.084;14.468;2023-11-22T01:10:51;4.85;;;3.22;;
81056;SDS011;70563;50.084;14.468;2023-11-22T01:13:17;4.50;;;3.35;;
81056;SDS011;70563;50.084;14.468;2023-11-22T01:15:43;4.80;;;3.17;;
81056;SDS011;70563;50.084;14.468;2023-11-22T01:18:09;6.40;;;3.83;;
81056;SDS011;70563;50.084;14.468;2023-11-22T01:20:35;6.93;;;3.90;;
81056;SDS011;70563;50.084;14.468;2023-11-22T01:23:01;5.28;;;3.65;;
81056;SDS011;70563;50.084;14.468;2023-11-22T01:25:26;6.25;;;3.63;;
81056;SDS011;70563;50.084;14.468;2023-11-22T01:27:53;5.35;;;4.30;;
81056;SDS011;70563;50.084;14.468;2023-11-22T01:30:18;7.10;;;4.90;;
81056;SDS011;70563;50.084;14.468;2023-11-22T01:32:44;7.40;;;4.97;;
81056;SDS011;70563;50.084;14.468;2023-11-22T01:35:10;7.07;;;4.43;;
81056;SDS011;70563;50.084;14.468;2023-11-22T01:37:35;8.95;;;4.75;;
81056;SDS011;70563;50.084;14.468;2023-11-22T01:40:00;7.78;;;5.15;;
81056;SDS011;70563;50.084;14.468;2023-11-22T01:42:28;9.60;;;5.95;;
81056;SDS011;70563;50.084;14.468;2023-11-22T01:44:53;7.75;;;5.32;;
81056;SDS011;70563;50.084;14.468;2023-11-22T01:47:19;7.47;;;5.25;;
81056;SDS011;70563;50.084;14.468;2023-11-22T01:49:45;11.20;;;6.25;;
81056;SDS011;70563;50.084;14.468;2023-11-22T01:52:11;10.20;;;6.43;;
81056;SDS011;70563;50.084;14.468;2023-11-22T01:54:37;11.10;;;6.40;;
81056;SDS011;70563;50.084;14.468;2023-11-22T01:57:03;11.68;;;6.85;;
81056;SDS011;70563;50.084;14.468;2023-11-22T01:59:31;12.32;;;6.82;;
81056;SDS011;70563;50.084;14.468;2023-11-22T02:01:57;11.73;;;6.65;;
81056;SDS011;70563;50.084;14.468;2023-11-22T02:04:22;10.95;;;6.97;;
81056;SDS011;70563;50.084;14.468;2023-11-22T02:06:47;14.27;;;7.68;;
81056;SDS011;70563;50.084;14.468;2023-11-22T02:09:13;13.15;;;7.10;;
81056;SDS011;70563;50.084;14.468;2023-11-22T02:11:41;12.13;;;7.28;;
81056;SDS011;70563;50.084;14.468;2023-11-22T02:14:12;13.95;;;7.75;;
81056;SDS011;70563;50.084;14.468;2023-11-22T02:16:38;13.85;;;7.18;;
81056;SDS011;70563;50.084;14.468;2023-11-22T02:19:05;11.73;;;6.43;;
81056;SDS011;70563;50.084;14.468;2023-11-22T02:21:32;11.23;;;7.22;;
81056;SDS011;70563;50.084;14.468;2023-11-22T02:23:57;13.75;;;7.53;;
81056;SDS011;70563;50.084;14.468;2023-11-22T02:26:23;10.85;;;6.50;;
81056;SDS011;70563;50.084;14.468;2023-11-22T02:28:50;10.65;;;6.20;;
81056;SDS011;70563;50.084;14.468;2023-11-22T02:31:15;10.45;;;6.50;;
81056;SDS011;70563;50.084;14.468;2023-11-22T02:33:41;8.30;;;5.10;;
81056;SDS011;70563;50.084;14.468;2023-11-22T02:36:07;7.60;;;4.85;;
81056;SDS011;70563;50.084;14.468;2023-11-22T02:38:32;9.48;;;5.45;;
81056;SDS011;70563;50.084;14.468;2023-11-22T02:41:00;8.13;;;5.20;;
81056;SDS011;70563;50.084;14.468;2023-11-22T02:43:26;8.38;;;4.95;;
81056;SDS011;70563;50.084;14.468;2023-11-22T02:45:51;8.88;;;5.45;;
81056;SDS011;70563;50.084;14.468;2023-11-22T02:48:17;9.23;;;5.80;;
81056;SDS011;70563;50.084;14.468;2023-11-22T02:50:43;8.80;;;5.53;;
81056;SDS011;70563;50.084;14.468;2023-11-22T02:53:09;8.25;;;5.13;;
81056;SDS011;70563;50.084;14.468;2023-11-22T02:55:35;9.25;;;5.68;;
81056;SDS011;70563;50.084;14.468;2023-11-22T02:58:00;9.50;;;5.53;;
81056;SDS011;70563;50.084;14.468;2023-11-22T03:00:27;9.77;;;5.78;;
81056;SDS011;70563;50.084;14.468;2023-11-22T03:02:54;8.82;;;4.95;;
81056;SDS011;70563;50.084;14.468;2023-11-22T03:05:21;8.40;;;5.13;;
81056;SDS011;70563;50.084;14.468;2023-11-22T03:07:47;10.80;;;5.32;;
81056;SDS011;70563;50.084;14.468;2023-11-22T03:10:13;9.10;;;5.65;;
81056;SDS011;70563;50.084;14.468;2023-11-22T03:12:39;9.80;;;5.07;;
81056;SDS011;70563;50.084;14.468;2023-11-22T03:15:04;10.18;;;5.85;;
81056;SDS011;70563;50.084;14.468;2023-11-22T03:17:30;9.32;;;5.38;;
81056;SDS011;70563;50.084;14.468;2023-11-22T03:19:56;7.82;;;5.40;;
81056;SDS011;70563;50.084;14.468;2023-11-22T03:22:25;9.38;;;5.70;;
81056;SDS011;70563;50.084;14.468;2023-11-22T03:24:51;15.38;;;6.50;;
81056;SDS011;70563;50.084;14.468;2023-11-22T03:27:17;10.50;;;6.75;;
81056;SDS011;70563;50.084;14.468;2023-11-22T03:29:43;11.55;;;6.63;;
81056;SDS011;70563;50.084;14.468;2023-11-22T03:32:09;11.50;;;6.25;;
81056;SDS011;70563;50.084;14.468;2023-11-22T03:34:36;9.82;;;6.53;;
81056;SDS011;70563;50.084;14.468;2023-11-22T03:37:01;13.68;;;8.27;;
81056;SDS011;70563;50.084;14.468;2023-11-22T03:39:27;14.60;;;8.35;;
81056;SDS011;70563;50.084;14.468;2023-11-22T03:41:52;13.60;;;8.25;;
81056;SDS011;70563;50.084;14.468;2023-11-22T03:44:17;13.32;;;8.05;;
81056;SDS011;70563;50.084;14.468;2023-11-22T03:46:43;15.88;;;9.07;;
81056;SDS011;70563;50.084;14.468;2023-11-22T03:49:09;14.93;;;8.95;;
81056;SDS011;70563;50.084;14.468;2023-11-22T03:51:35;14.10;;;8.27;;
81056;SDS011;70563;50.084;14.468;2023-11-22T03:54:02;13.10;;;7.70;;
81056;SDS011;70563;50.084;14.468;2023-11-22T03:56:28;13.77;;;8.23;;
81056;SDS011;70563;50.084;14.468;2023-11-22T03:58:54;12.98;;;7.78;;
81056;SDS011;70563;50.084;14.468;2023-11-22T04:01:19;13.32;;;8.15;;
81056;SDS011;70563;50.084;14.468;2023-11-22T04:03:45;15.77;;;8.48;;
81056;SDS011;70563;50.084;14.468;2023-11-22T04:06:13;14.73;;;8.15;;
81056;SDS011;70563;50.084;14.468;2023-11-22T04:08:40;13.43;;;8.30;;
81056;SDS011;70563;50.084;14.468;2023-11-22T04:11:08;13.40;;;7.22;;
81056;SDS011;70563;50.084;14.468;2023-11-22T04:13:33;15.18;;;9.30;;
81056;SDS011;70563;50.084;14.468;2023-11-22T04:15:58;14.75;;;8.15;;
81056;SDS011;70563;50.084;14.468;2023-11-22T04:18:24;14.50;;;8.45;;
81056;SDS011;70563;50.084;14.468;2023-11-22T04:20:49;15.68;;;8.52;;
81056;SDS011;70563;50.084;14.468;2023-11-22T04:23:15;13.43;;;8.15;;
81056;SDS011;70563;50.084;14.468;2023-11-22T04:25:41;13.60;;;8.27;;
81056;SDS011;70563;50.084;14.468;2023-11-22T04:28:06;13.38;;;8.30;;
81056;SDS011;70563;50.084;14.468;2023-11-22T04:30:33;18.50;;;8.13;;
81056;SDS011;70563;50.084;14.468;2023-11-22T04:32:59;13.65;;;7.75;;
81056;SDS011;70563;50.084;14.468;2023-11-22T04:35:25;15.50;;;8.48;;
81056;SDS011;70563;50.084;14.468;2023-11-22T04:37:50;15.25;;;8.43;;
81056;SDS011;70563;50.084;14.468;2023-11-22T04:40:15;16.30;;;8.90;;
81056;SDS011;70563;50.084;14.468;2023-11-22T04:42:41;14.23;;;8.68;;
81056;SDS011;70563;50.084;14.468;2023-11-22T04:45:06;14.02;;;8.65;;
81056;SDS011;70563;50.084;14.468;2023-11-22T04:47:32;15.15;;;8.48;;
81056;SDS011;70563;50.084;14.468;2023-11-22T04:49:58;16.70;;;8.32;;
81056;SDS011;70563;50.084;14.468;2023-11-22T04:52:23;16.08;;;8.40;;
81056;SDS011;70563;50.084;14.468;2023-11-22T04:54:49;16.45;;;8.80;;
81056;SDS011;70563;50.084;14.468;2023-11-22T04:57:14;16.05;;;8.45;;
81056;SDS011;70563;50.084;14.468;2023-11-22T04:59:40;16.75;;;9.27;;
81056;SDS011;70563;50.084;14.468;2023-11-22T05:02:05;16.25;;;8.45;;
81056;SDS011;70563;50.084;14.468;2023-11-22T05:04:32;17.08;;;8.90;;
81056;SDS011;70563;50.084;14.468;2023-11-22T05:06:57;16.27;;;7.95;;
81056;SDS011;70563;50.084;14.468;2023-11-22T05:09:23;15.95;;;8.43;;
81056;SDS011;70563;50.084;14.468;2023-11-22T05:11:49;15.82;;;9.43;;
81056;SDS011;70563;50.084;14.468;2023-11-22T05:14:14;15.25;;;9.40;;
81056;SDS011;70563;50.084;14.468;2023-11-22T05:16:39;17.88;;;9.02;;
81056;SDS011;70563;50.084;14.468;2023-11-22T05:19:05;15.68;;;8.07;;
81056;SDS011;70563;50.084;14.468;2023-11-22T05:21:30;16.75;;;9.38;;
81056;SDS011;70563;50.084;14.468;2023-11-22T05:23:57;17.25;;;9.82;;
81056;SDS011;70563;50.084;14.468;2023-11-22T05:26:22;20.35;;;10.52;;
81056;SDS011;70563;50.084;14.468;2023-11-22T05:28:48;20.35;;;9.70;;
81056;SDS011;70563;50.084;14.468;2023-11-22T05:31:13;21.55;;;11.25;;
81056;SDS011;70563;50.084;14.468;2023-11-22T05:33:39;21.10;;;11.23;;
81056;SDS011;70563;50.084;14.468;2023-11-22T05:36:05;16.70;;;10.05;;
81056;SDS011;70563;50.084;14.468;2023-11-22T05:38:31;20.75;;;10.43;;
81056;SDS011;70563;50.084;14.468;2023-11-22T05:40:59;22.27;;;10.18;;
81056;SDS011;70563;50.084;14.468;2023-11-22T05:43:25;21.65;;;11.00;;
81056;SDS011;70563;50.084;14.468;2023-11-22T05:45:52;18.50;;;9.15;;
81056;SDS011;70563;50.084;14.468;2023-11-22T05:48:17;18.83;;;10.23;;
81056;SDS011;70563;50.084;14.468;2023-11-22T05:50:44;19.63;;;9.82;;
81056;SDS011;70563;50.084;14.468;2023-11-22T05:53:10;21.27;;;11.15;;
81056;SDS011;70563;50.084;14.468;2023-11-22T05:55:36;18.35;;;10.63;;
81056;SDS011;70563;50.084;14.468;2023-11-22T05:58:02;22.10;;;10.52;;
81056;SDS011;70563;50.084;14.468;2023-11-22T06:00:28;21.33;;;11.10;;
81056;SDS011;70563;50.084;14.468;2023-11-22T06:02:53;20.60;;;10.90;;
81056;SDS011;70563;50.084;14.468;2023-11-22T06:05:20;17.80;;;10.02;;
81056;SDS011;70563;50.084;14.468;2023-11-22T06:07:45;17.00;;;9.93;;
81056;SDS011;70563;50.084;14.468;2023-11-22T06:10:11;24.08;;;9.90;;
81056;SDS011;70563;50.084;14.468;2023-11-22T06:12:39;17.55;;;9.32;;
81056;SDS011;70563;50.084;14.468;2023-11-22T06:15:05;17.17;;;9.63;;
81056;SDS011;70563;50.084;14.468;2023-11-22T06:17:31;18.90;;;9.65;;
81056;SDS011;70563;50.084;14.468;2023-11-22T06:19:56;18.08;;;8.93;;
81056;SDS011;70563;50.084;14.468;2023-11-22T06:22:22;19.17;;;10.75;;
81056;SDS011;70563;50.084;14.468;2023-11-22T06:24:47;20.45;;;10.13;;
81056;SDS011;70563;50.084;14.468;2023-11-22T06:27:13;22.98;;;11.13;;
81056;SDS011;70563;50.084;14.468;2023-11-22T06:29:40;18.52;;;8.98;;
81056;SDS011;70563;50.084;14.468;2023-11-22T06:32:05;19.05;;;11.63;;
81056;SDS011;70563;50.084;14.468;2023-11-22T06:34:31;18.27;;;10.50;;
81056;SDS011;70563;50.084;14.468;2023-11-22T06:36:57;20.02;;;11.15;;
81056;SDS011;70563;50.084;14.468;2023-11-22T06:39:22;18.67;;;9.57;;
81056;SDS011;70563;50.084;14.468;2023-11-22T06:41:49;18.23;;;9.95;;
81056;SDS011;70563;50.084;14.468;2023-11-22T06:44:15;18.52;;;10.02;;
81056;SDS011;70563;50.084;14.468;2023-11-22T06:46:40;22.63;;;10.13;;
81056;SDS011;70563;50.084;14.468;2023-11-22T06:49:05;21.08;;;10.77;;
81056;SDS011;70563;50.084;14.468;2023-11-22T06:51:31;21.65;;;10.60;;
81056;SDS011;70563;50.084;14.468;2023-11-22T06:53:56;20.48;;;10.23;;
81056;SDS011;70563;50.084;14.468;2023-11-22T06:56:22;20.65;;;11.32;;
81056;SDS011;70563;50.084;14.468;2023-11-22T06:58:48;19.15;;;10.60;;
81056;SDS011;70563;50.084;14.468;2023-11-22T07:01:13;21.55;;;10.40;;
81056;SDS011;70563;50.084;14.468;2023-11-22T07:03:39;16.45;;;9.77;;
81056;SDS011;70563;50.084;14.468;2023-11-22T07:06:05;23.67;;;11.00;;
81056;SDS011;70563;50.084;14.468;2023-11-22T07:08:30;18.15;;;9.48;;
81056;SDS011;70563;50.084;14.468;2023-11-22T07:10:56;24.55;;;11.77;;
81056;SDS011;70563;50.084;14.468;2023-11-22T07:13:24;22.80;;;10.93;;
81056;SDS011;70563;50.084;14.468;2023-11-22T07:15:51;23.98;;;11.13;;
81056;SDS011;70563;50.084;14.468;2023-11-22T07:18:18;19.73;;;10.50;;
81056;SDS011;70563;50.084;14.468;2023-11-22T07:20:44;19.10;;;10.95;;
81056;SDS011;70563;50.084;14.468;2023-11-22T07:23:09;22.02;;;10.68;;
81056;SDS011;70563;50.084;14.468;2023-11-22T07:25:38;21.55;;;11.32;;
81056;SDS011;70563;50.084;14.468;2023-11-22T07:28:04;21.88;;;11.18;;
81056;SDS011;70563;50.084;14.468;2023-11-22T07:30:29;24.02;;;10.10;;
81056;SDS011;70563;50.084;14.468;2023-11-22T07:32:55;20.27;;;10.95;;
81056;SDS011;70563;50.084;14.468;2023-11-22T07:35:21;19.55;;;10.75;;
81056;SDS011;70563;50.084;14.468;2023-11-22T07:37:46;20.95;;;10.43;;
81056;SDS011;70563;50.084;14.468;2023-11-22T07:40:13;26.13;;;11.20;;
81056;SDS011;70563;50.084;14.468;2023-11-22T07:42:39;20.95;;;12.25;;
81056;SDS011;70563;50.084;14.468;2023-11-22T07:45:09;21.27;;;11.82;;
81056;SDS011;70563;50.084;14.468;2023-11-22T07:47:36;21.13;;;10.70;;
81056;SDS011;70563;50.084;14.468;2023-11-22T07:50:05;20.20;;;10.95;;
81056;SDS011;70563;50.084;14.468;2023-11-22T07:52:32;22.77;;;11.73;;
81056;SDS011;70563;50.084;14.468;2023-11-22T07:54:57;27.10;;;12.57;;
81056;SDS011;70563;50.084;14.468;2023-11-22T07:57:24;20.30;;;10.55;;
81056;SDS011;70563;50.084;14.468;2023-11-22T07:59:50;21.48;;;11.18;;
81056;SDS011;70563;50.084;14.468;2023-11-22T08:02:19;21.83;;;10.13;;
81056;SDS011;70563;50.084;14.468;2023-11-22T08:04:44;23.85;;;11.70;;
81056;SDS011;70563;50.084;14.468;2023-11-22T08:07:10;22.85;;;12.50;;
81056;SDS011;70563;50.084;14.468;2023-11-22T08:09:43;25.55;;;12.38;;
81056;SDS011;70563;50.084;14.468;2023-11-22T08:12:08;23.42;;;10.73;;
81056;SDS011;70563;50.084;14.468;2023-11-22T08:14:36;23.98;;;11.85;;
81056;SDS011;70563;50.084;14.468;2023-11-22T08:17:05;25.13;;;12.55;;
81056;SDS011;70563;50.084;14.468;2023-11-22T08:19:31;23.50;;;12.70;;
81056;SDS011;70563;50.084;14.468;2023-11-22T08:21:56;23.80;;;12.80;;
81056;SDS011;70563;50.084;14.468;2023-11-22T08:24:22;25.20;;;11.95;;
81056;SDS011;70563;50.084;14.468;2023-11-22T08:26:48;24.00;;;11.60;;
81056;SDS011;70563;50.084;14.468;2023-11-22T08:29:13;25.85;;;12.55;;
81056;SDS011;70563;50.084;14.468;2023-11-22T08:31:39;22.65;;;12.18;;
81056;SDS011;70563;50.084;14.468;2023-11-22T08:34:05;28.63;;;13.57;;
81056;SDS011;70563;50.084;14.468;2023-11-22T08:36:35;29.10;;;13.77;;
81056;SDS011;70563;50.084;14.468;2023-11-22T08:39:01;27.10;;;13.10;;
81056;SDS011;70563;50.084;14.468;2023-11-22T08:41:29;23.88;;;11.88;;
81056;SDS011;70563;50.084;14.468;2023-11-22T08:43:56;25.30;;;14.15;;
81056;SDS011;70563;50.084;14.468;2023-11-22T08:46:22;27.02;;;14.73;;
81056;SDS011;70563;50.084;14.468;2023-11-22T08:48:49;22.38;;;11.68;;
81056;SDS011;70563;50.084;14.468;2023-11-22T08:51:16;22.95;;;12.38;;
81056;SDS011;70563;50.084;14.468;2023-11-22T08:53:41;28.27;;;14.60;;
81056;SDS011;70563;50.084;14.468;2023-11-22T08:56:09;25.02;;;12.80;;
81056;SDS011;70563;50.084;14.468;2023-11-22T08:58:34;27.33;;;13.82;;
81056;SDS011;70563;50.084;14.468;2023-11-22T09:00:59;28.15;;;13.00;;
81056;SDS011;70563;50.084;14.468;2023-11-22T09:03:25;27.95;;;14.00;;
81056;SDS011;70563;50.084;14.468;2023-11-22T09:05:51;24.88;;;13.18;;
81056;SDS011;70563;50.084;14.468;2023-11-22T09:08:18;24.02;;;11.85;;
81056;SDS011;70563;50.084;14.468;2023-11-22T09:10:45;26.08;;;13.45;;
81056;SDS011;70563;50.084;14.468;2023-11-22T09:13:11;25.90;;;11.98;;
81056;SDS011;70563;50.084;14.468;2023-11-22T09:15:40;26.38;;;13.15;;
81056;SDS011;70563;50.084;14.468;2023-11-22T09:18:06;22.05;;;11.52;;
81056;SDS011;70563;50.084;14.468;2023-11-22T09:20:33;24.00;;;12.00;;
81056;SDS011;70563;50.084;14.468;2023-11-22T09:22:58;26.38;;;11.77;;
81056;SDS011;70563;50.084;14.468;2023-11-22T09:25:24;26.02;;;13.00;;
81056;SDS011;70563;50.084;14.468;2023-11-22T09:27:55;24.15;;;12.73;;
81056;SDS011;70563;50.084;14.468;2023-11-22T09:30:24;24.45;;;12.23;;
81056;SDS011;70563;50.084;14.468;2023-11-22T09:33:00;25.77;;;11.80;;
81056;SDS011;70563;50.084;14.468;2023-11-22T09:35:26;23.75;;;13.60;;
81056;SDS011;70563;50.084;14.468;2023-11-22T09:37:54;29.33;;;13.95;;
81056;SDS011;70563;50.084;14.468;2023-11-22T09:40:23;25.48;;;11.85;;
81056;SDS011;70563;50.084;14.468;2023-11-22T09:42:48;27.40;;;14.10;;
81056;SDS011;70563;50.084;14.468;2023-11-22T09:45:19;31.95;;;13.32;;
81056;SDS011;70563;50.084;14.468;2023-11-22T09:47:45;27.63;;;13.32;;
81056;SDS011;70563;50.084;14.468;2023-11-22T09:50:13;25.08;;;13.90;;
81056;SDS011;70563;50.084;14.468;2023-11-22T09:52:46;22.50;;;12.57;;
81056;SDS011;70563;50.084;14.468;2023-11-22T09:55:16;26.77;;;12.85;;
81056;SDS011;70563;50.084;14.468;2023-11-22T09:57:43;27.85;;;13.30;;
81056;SDS011;70563;50.084;14.468;2023-11-22T10:00:09;26.48;;;12.38;;
81056;SDS011;70563;50.084;14.468;2023-11-22T10:05:06;21.83;;;10.40;;
81056;SDS011;70563;50.084;14.468;2023-11-22T10:07:33;22.58;;;12.10;;
81056;SDS011;70563;50.084;14.468;2023-11-22T10:10:00;21.15;;;11.07;;
81056;SDS011;70563;50.084;14.468;2023-11-22T10:12:30;28.50;;;13.43;;
81056;SDS011;70563;50.084;14.468;2023-11-22T10:14:55;24.98;;;13.02;;
81056;SDS011;70563;50.084;14.468;2023-11-22T10:17:32;24.98;;;11.95;;
81056;SDS011;70563;50.084;14.468;2023-11-22T10:19:57;25.63;;;13.18;;
81056;SDS011;70563;50.084;14.468;2023-11-22T10:22:22;26.20;;;12.68;;
81056;SDS011;70563;50.084;14.468;2023-11-22T10:24:48;24.92;;;12.80;;
81056;SDS011;70563;50.084;14.468;2023-11-22T10:27:13;24.25;;;12.95;;
81056;SDS011;70563;50.084;14.468;2023-11-22T10:29:41;23.85;;;11.18;;
81056;SDS011;70563;50.084;14.468;2023-11-22T10:32:06;26.70;;;12.38;;
81056;SDS011;70563;50.084;14.468;2023-11-22T10:34:32;23.35;;;12.60;;
81056;SDS011;70563;50.084;14.468;2023-11-22T10:36:58;27.08;;;13.02;;
81056;SDS011;70563;50.084;14.468;2023-11-22T10:39:26;22.73;;;12.23;;
81056;SDS011;70563;50.084;14.468;2023-11-22T10:41:52;25.85;;;12.85;;
81056;SDS011;70563;50.084;14.468;2023-11-22T10:44:19;23.90;;;12.60;;
81056;SDS011;70563;50.084;14.468;2023-11-22T10:46:46;23.17;;;11.20;;
81056;SDS011;70563;50.084;14.468;2023-11-22T10:49:12;22.05;;;11.95;;
81056;SDS011;70563;50.084;14.468;2023-11-22T10:51:38;25.75;;;12.90;;
81056;SDS011;70563;50.084;14.468;2023-11-22T10:54:06;25.65;;;12.80;;
81056;SDS011;70563;50.084;14.468;2023-11-22T10:56:36;26.95;;;12.15;;
81056;SDS011;70563;50.084;14.468;2023-11-22T10:59:06;24.10;;;12.35;;
81056;SDS011;70563;50.084;14.468;2023-11-22T11:01:38;27.08;;;11.68;;
81056;SDS011;70563;50.084;14.468;2023-11-22T11:04:11;22.30;;;12.60;;
81056;SDS011;70563;50.084;14.468;2023-11-22T11:06:51;23.02;;;12.50;;
81056;SDS011;70563;50.084;14.468;2023-11-22T11:09:19;23.55;;;12.07;;
81056;SDS011;70563;50.084;14.468;2023-11-22T11:11:46;25.65;;;13.00;;
81056;SDS011;70563;50.084;14.468;2023-11-22T11:14:11;23.35;;;13.02;;
81056;SDS011;70563;50.084;14.468;2023-11-22T11:16:39;25.02;;;12.93;;
81056;SDS011;70563;50.084;14.468;2023-11-22T11:19:15;25.60;;;12.85;;
81056;SDS011;70563;50.084;14.468;2023-11-22T11:21:42;28.30;;;13.52;;
81056;SDS011;70563;50.084;14.468;2023-11-22T11:24:08;26.25;;;11.93;;
81056;SDS011;70563;50.084;14.468;2023-11-22T11:26:33;22.98;;;12.30;;
81056;SDS011;70563;50.084;14.468;2023-11-22T11:28:59;26.90;;;12.85;;
81056;SDS011;70563;50.084;14.468;2023-11-22T11:31:25;24.58;;;12.07;;
81056;SDS011;70563;50.084;14.468;2023-11-22T11:33:56;25.48;;;11.95;;
81056;SDS011;70563;50.084;14.468;2023-11-22T11:36:26;28.35;;;12.80;;
81056;SDS011;70563;50.084;14.468;2023-11-22T11:38:54;23.40;;;13.05;;
81056;SDS011;70563;50.084;14.468;2023-11-22T11:41:28;24.55;;;11.75;;
81056;SDS011;70563;50.084;14.468;2023-11-22T11:43:56;25.77;;;12.70;;
81056;SDS011;70563;50.084;14.468;2023-11-22T11:46:22;25.73;;;12.57;;
81056;SDS011;70563;50.084;14.468;2023-11-22T11:48:48;23.88;;;11.43;;
81056;SDS011;70563;50.084;14.468;2023-11-22T11:51:17;23.85;;;12.60;;
81056;SDS011;70563;50.084;14.468;2023-11-22T11:53:44;24.00;;;12.55;;
81056;SDS011;70563;50.084;14.468;2023-11-22T11:56:10;25.25;;;12.02;;
81056;SDS011;70563;50.084;14.468;2023-11-22T11:58:36;26.17;;;12.75;;
81056;SDS011;70563;50.084;14.468;2023-11-22T12:01:03;24.38;;;12.50;;
81056;SDS011;70563;50.084;14.468;2023-11-22T12:03:30;26.20;;;12.98;;
81056;SDS011;70563;50.084;14.468;2023-11-22T12:05:55;29.00;;;12.15;;
81056;SDS011;70563;50.084;14.468;2023-11-22T12:08:21;21.83;;;12.27;;
81056;SDS011;70563;50.084;14.468;2023-11-22T12:10:47;20.48;;;11.77;;
81056;SDS011;70563;50.084;14.468;2023-11-22T12:13:20;28.48;;;12.80;;
81056;SDS011;70563;50.084;14.468;2023-11-22T12:15:46;25.17;;;12.77;;
81056;SDS011;70563;50.084;14.468;2023-11-22T12:18:12;19.70;;;10.30;;
81056;SDS011;70563;50.084;14.468;2023-11-22T12:20:38;24.25;;;12.07;;
81056;SDS011;70563;50.084;14.468;2023-11-22T12:23:04;25.30;;;12.07;;
81056;SDS011;70563;50.084;14.468;2023-11-22T12:25:30;25.23;;;11.65;;
81056;SDS011;70563;50.084;14.468;2023-11-22T12:27:56;28.70;;;12.18;;
81056;SDS011;70563;50.084;14.468;2023-11-22T12:30:31;25.67;;;13.07;;
81056;SDS011;70563;50.084;14.468;2023-11-22T12:33:04;25.88;;;12.73;;
81056;SDS011;70563;50.084;14.468;2023-11-22T12:35:31;26.52;;;12.90;;
81056;SDS011;70563;50.084;14.468;2023-11-22T12:38:04;26.02;;;12.13;;
81056;SDS011;70563;50.084;14.468;2023-11-22T12:40:33;23.70;;;12.25;;
81056;SDS011;70563;50.084;14.468;2023-11-22T12:42:59;28.58;;;11.98;;
81056;SDS011;70563;50.084;14.468;2023-11-22T12:45:26;28.15;;;13.98;;
81056;SDS011;70563;50.084;14.468;2023-11-22T12:47:56;25.55;;;12.23;;
81056;SDS011;70563;50.084;14.468;2023-11-22T12:50:32;29.38;;;12.68;;
81056;SDS011;70563;50.084;14.468;2023-11-22T12:53:07;31.88;;;16.02;;
81056;SDS011;70563;50.084;14.468;2023-11-22T12:55:43;28.08;;;13.25;;
81056;SDS011;70563;50.084;14.468;2023-11-22T12:58:13;20.08;;;11.80;;
81056;SDS011;70563;50.084;14.468;2023-11-22T13:00:40;29.08;;;12.48;;
81056;SDS011;70563;50.084;14.468;2023-11-22T13:03:08;25.27;;;12.82;;
81056;SDS011;70563;50.084;14.468;2023-11-22T13:05:37;28.98;;;13.98;;
81056;SDS011;70563;50.084;14.468;2023-11-22T13:08:04;24.90;;;11.73;;
81056;SDS011;70563;50.084;14.468;2023-11-22T13:10:30;23.50;;;12.25;;
81056;SDS011;70563;50.084;14.468;2023-11-22T13:12:56;24.23;;;12.50;;
81056;SDS011;70563;50.084;14.468;2023-11-22T13:15:22;25.98;;;11.85;;
81056;SDS011;70563;50.084;14.468;2023-11-22T13:17:54;20.27;;;11.00;;
81056;SDS011;70563;50.084;14.468;2023-11-22T13:20:23;25.02;;;12.73;;
81056;SDS011;70563;50.084;14.468;2023-11-22T13:22:51;27.20;;;12.35;;
81056;SDS011;70563;50.084;14.468;2023-11-22T13:25:17;25.80;;;13.18;;
81056;SDS011;70563;50.084;14.468;2023-11-22T13:27:44;26.23;;;12.00;;
81056;SDS011;70563;50.084;14.468;2023-11-22T13:30:16;23.30;;;10.23;;
81056;SDS011;70563;50.084;14.468;2023-11-22T13:32:46;25.02;;;11.85;;
81056;SDS011;70563;50.084;14.468;2023-11-22T13:35:12;25.13;;;12.10;;
81056;SDS011;70563;50.084;14.468;2023-11-22T13:37:40;23.55;;;10.90;;
81056;SDS011;70563;50.084;14.468;2023-11-22T13:40:13;26.27;;;12.75;;
81056;SDS011;70563;50.084;14.468;2023-11-22T13:42:43;24.83;;;11.95;;
81056;SDS011;70563;50.084;14.468;2023-11-22T13:45:10;27.23;;;11.18;;
81056;SDS011;70563;50.084;14.468;2023-11-22T13:47:40;22.80;;;11.88;;
81056;SDS011;70563;50.084;14.468;2023-11-22T13:50:10;23.23;;;11.98;;
81056;SDS011;70563;50.084;14.468;2023-11-22T13:52:38;19.60;;;10.73;;
81056;SDS011;70563;50.084;14.468;2023-11-22T13:55:04;18.42;;;9.93;;
81056;SDS011;70563;50.084;14.468;2023-11-22T13:57:33;24.70;;;11.82;;
81056;SDS011;70563;50.084;14.468;2023-11-22T13:59:58;24.00;;;11.70;;
81056;SDS011;70563;50.084;14.468;2023-11-22T14:02:24;23.92;;;11.70;;
81056;SDS011;70563;50.084;14.468;2023-11-22T14:04:49;23.27;;;11.80;;
81056;SDS011;70563;50.084;14.468;2023-11-22T14:07:14;24.15;;;11.23;;
81056;SDS011;70563;50.084;14.468;2023-11-22T14:09:40;22.17;;;11.73;;
81056;SDS011;70563;50.084;14.468;2023-11-22T14:12:05;20.08;;;10.55;;
81056;SDS011;70563;50.084;14.468;2023-11-22T14:14:31;23.45;;;12.13;;